createdAt,value
2018-03-04T00:01:31.103Z,50.10
2018-03-04T00:03:58.554Z,50.13
2018-03-04T00:06:26.019Z,51.80
2018-03-04T00:08:53.468Z,49.30
2018-03-04T00:11:20.925Z,53.00
2018-03-04T00:13:48.370Z,49.43
2018-03-04T00:16:15.859Z,49.40
2018-03-04T00:18:43.306Z,51.47
2018-03-04T00:21:10.746Z,49.50
2018-03-04T00:23:38.207Z,48.87
2018-03-04T00:26:05.646Z,51.77
2018-03-04T00:28:33.081Z,48.40
2018-03-04T00:31:00.586Z,49.30
2018-03-04T00:33:28.286Z,49.60
2018-03-04T00:35:55.730Z,51.60
2018-03-04T00:38:23.224Z,50.77
2018-03-04T00:40:51.449Z,47.40
2018-03-04T00:43:18.964Z,46.45
2018-03-04T00:45:46.420Z,49.20
2018-03-04T00:48:13.854Z,46.88
2018-03-04T00:50:41.376Z,44.43
2018-03-04T00:53:08.848Z,48.42
2018-03-04T00:55:36.284Z,46.60
2018-03-04T00:58:03.748Z,44.70
2018-03-04T01:00:31.207Z,45.10
2018-03-04T01:02:58.643Z,42.73
2018-03-04T01:05:26.095Z,42.00
2018-03-04T01:07:53.545Z,43.17
2018-03-04T01:10:20.995Z,45.20
2018-03-04T01:12:48.435Z,45.43
2018-03-04T01:15:15.888Z,41.43
2018-03-04T01:17:43.416Z,43.40
2018-03-04T01:20:10.847Z,41.90
2018-03-04T01:22:38.291Z,43.80
2018-03-04T01:25:05.730Z,42.90
2018-03-04T01:27:33.164Z,45.53
2018-03-04T01:30:00.686Z,43.08
2018-03-04T01:32:28.136Z,42.77
2018-03-04T01:34:55.570Z,41.30
2018-03-04T01:37:23.029Z,40.73
2018-03-04T01:39:50.789Z,39.13
2018-03-04T01:42:18.229Z,40.00
2018-03-04T01:44:45.748Z,41.70
2018-03-04T01:47:13.186Z,41.50
2018-03-04T01:49:40.610Z,39.40
2018-03-04T01:52:08.067Z,41.67
2018-03-04T01:54:35.565Z,40.23
2018-03-04T01:57:02.994Z,40.47
2018-03-04T01:59:30.496Z,39.20
2018-03-04T02:01:57.935Z,41.40
2018-03-04T02:04:25.384Z,42.20
2018-03-04T02:06:52.825Z,44.43
2018-03-04T02:09:20.319Z,43.80
2018-03-04T02:11:47.809Z,40.47
2018-03-04T02:14:15.268Z,40.38
2018-03-04T02:16:42.695Z,42.07
2018-03-04T02:19:10.139Z,44.50
2018-03-04T02:21:37.602Z,42.33
2018-03-04T02:24:05.054Z,42.87
2018-03-04T02:26:32.514Z,42.60
2018-03-04T02:28:59.967Z,44.47
2018-03-04T02:31:27.407Z,43.43
2018-03-04T02:33:54.834Z,45.53
2018-03-04T02:36:22.369Z,41.20
2018-03-04T02:38:49.802Z,41.17
2018-03-04T02:41:17.237Z,42.60
2018-03-04T02:43:44.686Z,43.03
2018-03-04T02:46:12.122Z,41.10
2018-03-04T02:48:39.642Z,43.30
2018-03-04T02:51:07.102Z,42.00
2018-03-04T02:53:34.533Z,43.03
2018-03-04T02:56:01.979Z,40.60
2018-03-04T02:58:29.430Z,41.07
2018-03-04T03:00:56.923Z,40.50
2018-03-04T03:03:24.367Z,42.50
2018-03-04T03:05:51.868Z,41.60
2018-03-04T03:08:19.323Z,43.80
2018-03-04T03:10:46.861Z,42.77
2018-03-04T03:13:14.315Z,42.63
2018-03-04T03:15:41.757Z,41.43
2018-03-04T03:18:09.326Z,42.70
2018-03-04T03:20:36.770Z,39.67
2018-03-04T03:23:04.204Z,40.57
2018-03-04T03:25:31.643Z,42.67
2018-03-04T03:27:59.097Z,41.03
2018-03-04T03:30:26.539Z,43.03
2018-03-04T03:32:53.990Z,44.10
2018-03-04T03:35:21.456Z,42.72
2018-03-04T03:37:48.886Z,43.23
2018-03-04T03:40:16.322Z,44.83
2018-03-04T03:42:43.788Z,43.53
2018-03-04T03:45:11.233Z,43.53
2018-03-04T03:47:39.018Z,45.23
2018-03-04T03:50:06.477Z,45.10
2018-03-04T03:52:33.910Z,42.37
2018-03-04T03:55:01.358Z,44.30
2018-03-04T03:57:28.842Z,46.50
2018-03-04T03:59:56.277Z,48.20
2018-03-04T04:02:23.715Z,48.20
2018-03-04T04:04:51.159Z,49.17
2018-03-04T04:07:18.599Z,46.30
2018-03-04T04:09:46.035Z,49.07
2018-03-04T04:12:13.483Z,46.73
2018-03-04T04:14:40.956Z,48.53
2018-03-04T04:17:08.392Z,45.57
2018-03-04T04:19:35.839Z,43.47
2018-03-04T04:22:03.269Z,49.03
2018-03-04T04:24:30.712Z,47.23
2018-03-04T04:26:58.150Z,47.80
2018-03-04T04:29:25.590Z,45.87
2018-03-04T04:31:53.028Z,47.33
2018-03-04T04:34:20.486Z,48.25
2018-03-04T04:36:47.922Z,46.13
2018-03-04T04:39:15.666Z,47.80
2018-03-04T04:41:43.144Z,48.20
2018-03-04T04:44:10.578Z,46.00
2018-03-04T04:46:38.010Z,45.70
2018-03-04T04:49:05.457Z,47.63
2018-03-04T04:51:32.909Z,47.33
2018-03-04T04:54:00.353Z,49.37
2018-03-04T04:56:27.807Z,47.77
2018-03-04T04:58:55.287Z,46.40
2018-03-04T05:01:22.781Z,46.30
2018-03-04T05:03:50.231Z,46.63
2018-03-04T05:06:17.684Z,42.80
2018-03-04T05:08:45.219Z,48.63
2018-03-04T05:11:12.660Z,44.43
2018-03-04T05:13:40.106Z,45.00
2018-03-04T05:16:07.587Z,46.77
2018-03-04T05:18:35.039Z,41.60
2018-03-04T05:21:02.754Z,47.47
2018-03-04T05:23:30.236Z,43.87
2018-03-04T05:25:57.687Z,43.47
2018-03-04T05:28:25.115Z,46.03
2018-03-04T05:30:52.547Z,46.37
2018-03-04T05:33:19.996Z,41.10
2018-03-04T05:35:47.434Z,45.67
2018-03-04T05:38:14.906Z,44.00
2018-03-04T05:40:42.354Z,44.00
2018-03-04T05:43:09.785Z,44.80
2018-03-04T05:45:37.278Z,46.00
2018-03-04T05:48:04.782Z,46.50
2018-03-04T05:50:32.215Z,46.70
2018-03-04T05:52:59.651Z,44.40
2018-03-04T05:55:27.110Z,44.00
2018-03-04T05:57:54.565Z,48.07
2018-03-04T06:00:22.028Z,44.70
2018-03-04T06:02:49.475Z,46.70
2018-03-04T06:05:16.919Z,44.90
2018-03-04T06:07:44.353Z,45.50
2018-03-04T06:10:11.805Z,51.80
2018-03-04T06:12:40.131Z,49.80
2018-03-04T06:15:07.601Z,48.65
2018-03-04T06:17:35.048Z,48.90
2018-03-04T06:20:02.537Z,52.97
2018-03-04T06:22:30.060Z,48.80
2018-03-04T06:24:57.518Z,50.53
2018-03-04T06:27:24.954Z,51.00
2018-03-04T06:29:52.386Z,48.50
2018-03-04T06:32:19.836Z,48.77
2018-03-04T06:34:47.288Z,49.40
2018-03-04T06:37:14.766Z,43.80
2018-03-04T06:39:42.272Z,49.30
2018-03-04T06:42:09.728Z,48.27
2018-03-04T06:44:37.182Z,45.77
2018-03-04T06:47:04.629Z,45.33
2018-03-04T06:49:32.072Z,48.30
2018-03-04T06:51:59.513Z,48.73
2018-03-04T06:54:26.961Z,47.17
2018-03-04T06:56:54.399Z,49.10
2018-03-04T06:59:21.837Z,48.00
2018-03-04T07:01:49.301Z,48.87
2018-03-04T07:04:16.747Z,44.17
2018-03-04T07:06:44.177Z,47.80
2018-03-04T07:09:11.633Z,48.30
2018-03-04T07:11:39.071Z,45.07
2018-03-04T07:14:06.599Z,44.60
2018-03-04T07:16:34.107Z,46.00
2018-03-04T07:19:01.896Z,44.85
2018-03-04T07:21:29.349Z,45.20
2018-03-04T07:23:56.798Z,47.30
2018-03-04T07:26:24.223Z,46.57
2018-03-04T07:28:51.663Z,46.37
2018-03-04T07:31:19.114Z,47.33
2018-03-04T07:33:46.551Z,46.63
2018-03-04T07:36:14.098Z,45.87
2018-03-04T07:38:41.550Z,46.23
2018-03-04T07:41:08.999Z,44.60
2018-03-04T07:43:36.426Z,45.97
2018-03-04T07:46:03.869Z,44.83
2018-03-04T07:48:31.306Z,45.23
2018-03-04T07:50:58.748Z,43.83
2018-03-04T07:53:26.201Z,43.87
2018-03-04T07:55:53.649Z,44.87
2018-03-04T07:58:21.101Z,43.60
2018-03-04T08:00:48.551Z,48.27
2018-03-04T08:03:15.999Z,40.13
2018-03-04T08:05:43.482Z,45.17
2018-03-04T08:08:10.935Z,44.67
2018-03-04T08:10:38.475Z,42.13
2018-03-04T08:13:05.910Z,42.93
2018-03-04T08:15:33.419Z,42.50
2018-03-04T08:18:00.862Z,44.00
2018-03-04T08:20:28.300Z,45.50
2018-03-04T08:22:55.744Z,43.40
2018-03-04T08:25:36.307Z,45.37
2018-03-04T08:28:15.518Z,44.20
2018-03-04T08:30:42.991Z,42.90
2018-03-04T08:33:10.428Z,41.73
2018-03-04T08:35:37.964Z,40.92
2018-03-04T08:38:05.406Z,40.43
2018-03-04T08:40:32.854Z,42.40
2018-03-04T08:43:00.294Z,43.07
2018-03-04T08:45:27.738Z,45.17
2018-03-04T08:47:55.356Z,40.40
2018-03-04T08:50:22.810Z,44.73
2018-03-04T08:52:50.271Z,45.47
2018-03-04T08:55:17.732Z,41.80
2018-03-04T08:57:45.183Z,39.70
2018-03-04T09:00:12.642Z,39.50
2018-03-04T09:02:40.102Z,41.90
2018-03-04T09:05:07.566Z,43.10
2018-03-04T09:07:35.000Z,42.40
2018-03-04T09:10:02.452Z,41.00
2018-03-04T09:12:29.907Z,43.33
2018-03-04T09:14:57.354Z,43.00
2018-03-04T09:17:24.799Z,41.80
2018-03-04T09:19:52.275Z,43.37
2018-03-04T09:22:19.775Z,42.97
2018-03-04T09:24:47.243Z,42.20
2018-03-04T09:27:14.697Z,40.30
2018-03-04T09:29:42.127Z,39.90
2018-03-04T09:32:09.986Z,40.60
2018-03-04T09:34:37.450Z,43.50
2018-03-04T09:37:04.894Z,42.40
2018-03-04T09:39:32.334Z,40.60
2018-03-04T09:41:59.828Z,41.57
2018-03-04T09:44:27.756Z,39.00
2018-03-04T09:46:55.196Z,39.90
2018-03-04T09:49:22.646Z,40.17
2018-03-04T09:51:50.084Z,42.67
2018-03-04T09:54:17.518Z,41.90
2018-03-04T09:56:45.033Z,43.07
2018-03-04T09:59:12.436Z,39.97
2018-03-04T10:01:39.905Z,39.60
2018-03-04T10:04:07.359Z,41.00
2018-03-04T10:06:34.904Z,40.13
2018-03-04T10:09:02.357Z,40.13
2018-03-04T10:11:29.811Z,39.20
2018-03-04T10:13:57.294Z,39.30
2018-03-04T10:16:24.745Z,40.83
2018-03-04T10:18:52.199Z,44.53
2018-03-04T10:21:19.636Z,42.77
2018-03-04T10:23:47.087Z,38.30
2018-03-04T10:26:14.545Z,37.87
2018-03-04T10:28:41.998Z,38.23
2018-03-04T10:31:09.460Z,35.87
2018-03-04T10:33:36.909Z,39.93
2018-03-04T10:36:04.351Z,41.77
2018-03-04T10:38:31.804Z,38.83
2018-03-04T10:40:59.242Z,36.72
2018-03-04T10:43:26.681Z,37.47
2018-03-04T10:45:54.121Z,37.00
2018-03-04T10:48:21.566Z,37.40
2018-03-04T10:50:49.155Z,36.03
2018-03-04T10:53:16.616Z,35.83
2018-03-04T10:55:44.071Z,37.00
2018-03-04T10:58:11.504Z,36.17
2018-03-04T11:00:44.667Z,36.10
2018-03-04T11:03:18.583Z,35.87
2018-03-04T11:05:46.037Z,38.13
2018-03-04T11:08:13.483Z,38.17
2018-03-04T11:10:40.921Z,38.63
2018-03-04T11:13:08.454Z,38.77
2018-03-04T11:15:35.911Z,36.87
2018-03-04T11:18:03.340Z,37.40
2018-03-04T11:20:30.839Z,36.83
2018-03-04T11:22:58.254Z,40.63
2018-03-04T11:25:25.697Z,35.27
2018-03-04T11:27:53.566Z,38.63
2018-03-04T11:30:21.055Z,36.87
2018-03-04T11:32:48.514Z,35.70
2018-03-04T11:35:15.970Z,40.07
2018-03-04T11:37:43.408Z,38.43
2018-03-04T11:40:10.864Z,37.90
2018-03-04T11:42:38.310Z,37.20
2018-03-04T11:45:05.777Z,36.20
2018-03-04T11:47:33.217Z,37.80
2018-03-04T11:50:00.684Z,37.30
2018-03-04T11:52:28.125Z,37.30
2018-03-04T11:54:55.578Z,40.00
2018-03-04T11:57:23.036Z,37.20
2018-03-04T11:59:50.488Z,37.40
2018-03-04T12:02:17.922Z,38.57
2018-03-04T12:04:45.523Z,37.63
2018-03-04T12:07:12.967Z,36.53
2018-03-04T12:09:40.489Z,38.50
2018-03-04T12:12:07.897Z,36.60
2018-03-04T12:14:35.339Z,37.60
2018-03-04T12:17:02.787Z,38.50
2018-03-04T12:19:30.248Z,38.17
2018-03-04T12:21:57.701Z,40.40
2018-03-04T12:24:25.130Z,39.90
2018-03-04T12:26:52.626Z,39.17
2018-03-04T12:29:20.077Z,39.87
2018-03-04T12:31:47.529Z,38.30
2018-03-04T12:34:14.991Z,39.07
2018-03-04T12:36:42.741Z,37.00
2018-03-04T12:39:10.158Z,41.83
2018-03-04T12:41:37.614Z,40.27
2018-03-04T12:44:05.087Z,40.20
2018-03-04T12:46:32.540Z,40.65
2018-03-04T12:49:00.005Z,39.37
2018-03-04T12:51:27.438Z,39.77
2018-03-04T12:53:54.876Z,39.17
2018-03-04T12:56:22.329Z,37.40
2018-03-04T12:58:49.845Z,38.60
2018-03-04T13:01:17.296Z,39.83
2018-03-04T13:03:44.751Z,37.80
2018-03-04T13:06:12.190Z,39.30
2018-03-04T13:08:39.624Z,36.27
2018-03-04T13:11:07.087Z,36.83
2018-03-04T13:13:34.786Z,35.43
2018-03-04T13:16:02.242Z,36.50
2018-03-04T13:18:29.695Z,36.07
2018-03-04T13:20:57.135Z,36.80
2018-03-04T13:23:24.694Z,35.67
2018-03-04T13:25:52.139Z,35.87
2018-03-04T13:28:19.632Z,38.37
2018-03-04T13:30:47.071Z,37.70
2018-03-04T13:33:14.644Z,39.37
2018-03-04T13:35:42.087Z,36.50
2018-03-04T13:38:09.560Z,35.20
2018-03-04T13:40:37.367Z,34.17
2018-03-04T13:43:04.811Z,36.47
2018-03-04T13:45:32.346Z,35.77
2018-03-04T13:47:59.892Z,37.13
2018-03-04T13:50:27.340Z,34.17
2018-03-04T13:52:54.786Z,34.87
2018-03-04T13:55:22.349Z,35.57
2018-03-04T13:57:49.787Z,32.90
2018-03-04T14:00:17.226Z,33.37
2018-03-04T14:02:44.671Z,32.70
2018-03-04T14:05:12.116Z,32.37
2018-03-04T14:07:39.569Z,32.03
2018-03-04T14:10:07.023Z,31.50
2018-03-04T14:12:34.595Z,31.90
2018-03-04T14:15:02.046Z,32.50
2018-03-04T14:17:29.495Z,34.10
2018-03-04T14:19:56.999Z,33.30
2018-03-04T14:22:24.435Z,32.10
2018-03-04T14:24:51.889Z,35.47
2018-03-04T14:27:19.335Z,34.07
2018-03-04T14:29:46.778Z,37.60
2018-03-04T14:32:14.226Z,33.97
2018-03-04T14:34:41.692Z,35.13
2018-03-04T14:37:09.128Z,34.20
2018-03-04T14:39:36.599Z,36.70
2018-03-04T14:42:04.037Z,37.53
2018-03-04T14:44:31.534Z,35.40
2018-03-04T14:46:59.080Z,36.03
2018-03-04T14:49:26.538Z,33.50
2018-03-04T14:51:54.004Z,34.33
2018-03-04T14:54:21.466Z,33.80
2018-03-04T14:56:48.905Z,35.00
2018-03-04T14:59:16.356Z,35.00
2018-03-04T15:01:43.827Z,35.80
2018-03-04T15:04:11.278Z,33.80
2018-03-04T15:06:38.716Z,34.80
2018-03-04T15:09:06.162Z,33.80
2018-03-04T15:11:34.275Z,40.00
2018-03-04T15:14:01.751Z,33.13
2018-03-04T15:16:29.284Z,33.20
2018-03-04T15:18:56.777Z,31.45
2018-03-04T15:21:24.264Z,34.30
2018-03-04T15:23:51.767Z,33.13
2018-03-04T15:26:19.209Z,33.73
2018-03-04T15:28:49.651Z,32.87
2018-03-04T15:31:17.231Z,34.50
2018-03-04T15:33:45.721Z,32.88
2018-03-04T15:36:13.159Z,33.07
2018-03-04T15:38:40.701Z,31.20
2018-03-04T15:41:08.134Z,29.93
2018-03-04T15:43:35.610Z,32.70
2018-03-04T15:46:03.062Z,34.10
2018-03-04T15:48:30.518Z,34.80
2018-03-04T15:50:58.105Z,35.05
2018-03-04T15:53:25.438Z,36.90
2018-03-04T15:55:52.903Z,35.70
2018-03-04T15:58:20.340Z,34.70
2018-03-04T16:00:47.858Z,33.08
2018-03-04T16:03:15.289Z,33.53
2018-03-04T16:05:42.842Z,33.77
2018-03-04T16:08:10.288Z,33.80
2018-03-04T16:10:37.733Z,35.67
2018-03-04T16:13:05.176Z,33.73
2018-03-04T16:15:32.636Z,32.80
2018-03-04T16:18:00.235Z,30.90
2018-03-04T16:20:27.672Z,31.35
2018-03-04T16:22:55.122Z,33.20
2018-03-04T16:25:22.653Z,33.10
2018-03-04T16:27:50.059Z,30.83
2018-03-04T16:30:17.499Z,32.77
2018-03-04T16:32:44.976Z,31.60
2018-03-04T16:35:12.415Z,30.77
2018-03-04T16:37:39.857Z,29.53
2018-03-04T16:40:07.279Z,30.37
2018-03-04T16:42:34.762Z,33.70
2018-03-04T16:45:02.170Z,30.60
2018-03-04T16:47:29.865Z,31.42
2018-03-04T16:49:57.306Z,30.33
2018-03-04T16:52:24.837Z,31.70
2018-03-04T16:54:52.290Z,29.77
2018-03-04T16:57:19.726Z,30.27
2018-03-04T16:59:47.230Z,33.53
2018-03-04T17:02:14.658Z,39.93
2018-03-04T17:04:42.114Z,31.80
2018-03-04T17:07:09.557Z,30.00
2018-03-04T17:09:37.002Z,38.00
2018-03-04T17:12:04.497Z,40.97
2018-03-04T17:14:31.948Z,33.77
2018-03-04T17:16:59.408Z,32.57
2018-03-04T17:19:26.861Z,31.67
2018-03-04T17:21:54.293Z,31.10
2018-03-04T17:24:21.733Z,31.33
2018-03-04T17:26:49.167Z,48.57
2018-03-04T17:29:16.617Z,65.80
2018-03-04T17:31:44.041Z,63.90
2018-03-04T17:34:11.475Z,51.40
2018-03-04T17:36:38.911Z,50.17
2018-03-04T17:39:06.330Z,44.13
2018-03-04T17:41:33.762Z,55.33
2018-03-04T17:44:01.303Z,35.70
2018-03-04T17:46:28.727Z,35.70
2018-03-04T17:48:56.146Z,34.10
2018-03-04T17:51:23.608Z,34.40
2018-03-04T17:53:51.062Z,33.67
2018-03-04T17:56:18.494Z,36.30
2018-03-04T17:58:45.954Z,35.33
2018-03-04T18:01:13.430Z,35.63
2018-03-04T18:03:40.868Z,35.50
2018-03-04T18:06:08.310Z,36.00
2018-03-04T18:08:35.742Z,38.53
2018-03-04T18:11:03.841Z,37.70
2018-03-04T18:13:31.337Z,40.23
2018-03-04T18:15:58.770Z,40.60
2018-03-04T18:18:26.219Z,38.40
2018-03-04T18:20:53.687Z,37.07
2018-03-04T18:23:21.118Z,39.27
2018-03-04T18:25:48.555Z,39.90
2018-03-04T18:28:16.007Z,45.20
2018-03-04T18:30:43.543Z,43.80
2018-03-04T18:33:10.982Z,43.70
2018-03-04T18:35:38.430Z,45.55
2018-03-04T18:38:05.909Z,45.53
2018-03-04T18:40:33.343Z,42.97
2018-03-04T18:43:00.790Z,44.70
2018-03-04T18:45:28.238Z,46.43
2018-03-04T18:47:55.666Z,44.47
2018-03-04T18:50:23.110Z,45.90
2018-03-04T18:52:50.534Z,46.80
2018-03-04T18:55:17.978Z,62.73
2018-03-04T18:57:45.422Z,47.83
2018-03-04T19:00:13.022Z,50.23
2018-03-04T19:02:40.755Z,50.00
2018-03-04T19:05:08.256Z,45.70
2018-03-04T19:07:35.720Z,42.93
2018-03-04T19:10:03.206Z,47.03
2018-03-04T19:12:30.663Z,46.67
2018-03-04T19:14:58.186Z,47.97
2018-03-04T19:17:25.615Z,45.63
2018-03-04T19:19:53.169Z,47.50
2018-03-04T19:22:20.598Z,45.93
2018-03-04T19:24:48.050Z,45.73
2018-03-04T19:27:15.499Z,43.27
2018-03-04T19:29:42.940Z,44.83
2018-03-04T19:32:10.375Z,45.00
2018-03-04T19:34:37.825Z,45.30
2018-03-04T19:37:05.316Z,45.83
2018-03-04T19:39:32.758Z,43.03
2018-03-04T19:42:00.323Z,47.43
2018-03-04T19:44:27.770Z,44.80
2018-03-04T19:46:55.190Z,45.90
2018-03-04T19:49:22.685Z,44.83
2018-03-04T19:51:50.118Z,46.93
2018-03-04T19:54:17.846Z,45.95
2018-03-04T19:56:45.306Z,47.90
2018-03-04T19:59:12.742Z,47.13
2018-03-04T20:01:40.178Z,47.10
2018-03-04T20:04:07.636Z,46.07
2018-03-04T20:06:35.076Z,49.80
2018-03-04T20:09:02.506Z,45.80
2018-03-04T20:11:29.969Z,46.30
2018-03-04T20:13:57.412Z,47.40
2018-03-04T20:16:25.400Z,44.50
2018-03-04T20:18:52.909Z,45.07
2018-03-04T20:21:20.341Z,46.67
2018-03-04T20:23:47.818Z,46.50
2018-03-04T20:26:15.373Z,47.30
2018-03-04T20:28:42.832Z,44.13
2018-03-04T20:31:10.290Z,47.87
2018-03-04T20:33:37.733Z,49.13
2018-03-04T20:36:05.205Z,50.43
2018-03-04T20:38:32.641Z,47.57
2018-03-04T20:41:00.225Z,48.80
2018-03-04T20:43:27.677Z,64.30
2018-03-04T20:45:55.135Z,61.83
2018-03-04T20:48:22.587Z,56.33
2018-03-04T20:50:50.029Z,47.53
2018-03-04T20:53:17.469Z,56.47
2018-03-04T20:55:44.925Z,46.40
2018-03-04T20:58:12.435Z,46.07
2018-03-04T21:00:39.875Z,48.40
2018-03-04T21:03:07.375Z,46.77
2018-03-04T21:05:34.901Z,48.93
2018-03-04T21:08:02.344Z,49.70
2018-03-04T21:10:29.792Z,48.03
2018-03-04T21:12:57.251Z,69.10
2018-03-04T21:15:24.730Z,57.17
2018-03-04T21:17:52.194Z,52.40
2018-03-04T21:20:19.652Z,54.10
2018-03-04T21:22:47.203Z,45.73
2018-03-04T21:25:14.695Z,46.60
2018-03-04T21:27:42.130Z,44.80
2018-03-04T21:30:09.562Z,46.40
2018-03-04T21:32:37.024Z,46.47
2018-03-04T21:35:05.242Z,48.92
2018-03-04T21:37:32.672Z,48.27
2018-03-04T21:40:00.132Z,46.13
2018-03-04T21:42:27.574Z,49.03
2018-03-04T21:44:55.025Z,46.77
2018-03-04T21:47:22.472Z,47.07
2018-03-04T21:49:49.907Z,47.00
2018-03-04T21:52:18.350Z,48.35
2018-03-04T21:54:45.790Z,49.20
2018-03-04T21:57:13.233Z,48.87
2018-03-04T21:59:40.718Z,49.70
2018-03-04T22:02:08.174Z,50.13
2018-03-04T22:04:35.714Z,48.50
2018-03-04T22:07:03.180Z,51.73
2018-03-04T22:09:30.630Z,50.50
2018-03-04T22:11:58.083Z,51.10
2018-03-04T22:14:25.525Z,52.30
2018-03-04T22:16:53.000Z,52.20
2018-03-04T22:19:20.464Z,51.93
2018-03-04T22:21:47.926Z,51.90
2018-03-04T22:24:15.382Z,51.70
2018-03-04T22:26:42.836Z,49.90
2018-03-04T22:29:10.275Z,53.03
2018-03-04T22:31:37.791Z,52.90
2018-03-04T22:34:05.801Z,55.80
2018-03-04T22:36:33.247Z,51.87
2018-03-04T22:39:00.727Z,49.70
2018-03-04T22:41:28.178Z,50.22
2018-03-04T22:43:55.663Z,51.77
2018-03-04T22:46:23.207Z,46.50
2018-03-04T22:48:50.643Z,50.97
2018-03-04T22:51:18.085Z,50.47
2018-03-04T22:53:45.586Z,55.53
2018-03-04T22:56:13.019Z,50.70
2018-03-04T22:58:40.459Z,53.20
2018-03-04T23:01:07.914Z,48.13
2018-03-04T23:03:35.346Z,54.47
2018-03-04T23:06:02.782Z,52.30
2018-03-04T23:08:30.234Z,51.53
2018-03-04T23:10:57.674Z,55.25
2018-03-04T23:13:25.106Z,52.87
2018-03-04T23:15:52.566Z,53.47
2018-03-04T23:18:20.012Z,50.20
2018-03-04T23:20:47.574Z,52.00
2018-03-04T23:23:15.211Z,50.53
2018-03-04T23:25:42.646Z,53.87
2018-03-04T23:28:10.079Z,53.67
2018-03-04T23:30:37.536Z,51.87
2018-03-04T23:33:05.308Z,51.43
2018-03-04T23:35:32.748Z,52.10
2018-03-04T23:38:00.219Z,55.00
2018-03-04T23:40:27.658Z,55.27
2018-03-04T23:42:55.095Z,53.80
2018-03-04T23:45:22.552Z,56.87
2018-03-04T23:47:50.047Z,48.97
2018-03-04T23:50:17.479Z,49.80
2018-03-04T23:52:44.923Z,51.93
2018-03-04T23:55:12.373Z,58.57
2018-03-04T23:57:39.819Z,54.43
